createdAt,value
2023-08-03T00:00:29.960Z,20.62
2023-08-03T00:03:02.730Z,20.69
2023-08-03T00:05:35.638Z,20.71
2023-08-03T00:08:08.175Z,20.74
2023-08-03T00:10:40.758Z,20.70
2023-08-03T00:13:14.680Z,20.74
2023-08-03T00:15:47.276Z,20.65
2023-08-03T00:18:19.913Z,20.63
2023-08-03T00:20:53.371Z,20.53
2023-08-03T00:23:25.976Z,20.56
2023-08-03T00:25:58.525Z,20.67
2023-08-03T00:28:32.403Z,20.69
2023-08-03T00:31:05.112Z,20.67
2023-08-03T00:33:37.739Z,20.66
2023-08-03T00:36:10.420Z,20.68
2023-08-03T00:38:43.652Z,20.70
2023-08-03T00:41:16.189Z,20.63
2023-08-03T00:43:51.376Z,20.55
2023-08-03T00:46:25.109Z,20.61
2023-08-03T00:48:58.741Z,20.59
2023-08-03T00:51:31.433Z,20.61
2023-08-03T00:54:08.133Z,20.56
2023-08-03T00:56:42.814Z,20.49
2023-08-03T00:59:16.839Z,20.43
2023-08-03T01:01:49.651Z,20.47
2023-08-03T01:04:22.460Z,20.51
2023-08-03T01:06:55.025Z,20.55
2023-08-03T01:09:27.741Z,20.49
2023-08-03T01:12:00.436Z,20.54
2023-08-03T01:14:34.711Z,20.51
2023-08-03T01:17:07.550Z,20.43
2023-08-03T01:19:40.481Z,20.49
2023-08-03T01:22:14.629Z,20.51
2023-08-03T01:24:48.914Z,20.48
2023-08-03T01:27:21.556Z,20.42
2023-08-03T01:29:54.184Z,20.44
2023-08-03T01:32:27.230Z,20.36
2023-08-03T01:35:00.330Z,20.40
2023-08-03T01:37:35.357Z,20.35
2023-08-03T01:40:11.827Z,20.35
2023-08-03T01:42:44.493Z,20.33
2023-08-03T01:45:18.529Z,20.33
2023-08-03T01:47:51.308Z,20.31
2023-08-03T01:50:23.968Z,20.33
2023-08-03T01:52:56.946Z,20.34
2023-08-03T01:55:31.104Z,20.37
2023-08-03T01:58:03.925Z,20.27
2023-08-03T02:00:36.787Z,20.32
2023-08-03T02:03:09.662Z,20.38
2023-08-03T02:05:42.545Z,20.31
2023-08-03T02:08:15.794Z,20.27
2023-08-03T02:10:49.906Z,20.33
2023-08-03T02:13:22.506Z,20.37
2023-08-03T02:15:55.255Z,20.34
2023-08-03T02:18:30.583Z,20.32
2023-08-03T02:21:03.269Z,20.30
2023-08-03T02:23:35.847Z,20.38
2023-08-03T02:26:10.111Z,20.35
2023-08-03T02:28:42.976Z,20.30
2023-08-03T02:31:17.973Z,20.30
2023-08-03T02:33:55.129Z,20.36
2023-08-03T02:36:35.715Z,20.29
2023-08-03T02:39:13.291Z,20.25
2023-08-03T02:41:53.828Z,20.33
2023-08-03T02:44:30.733Z,20.21
2023-08-03T02:47:03.406Z,20.21
2023-08-03T02:49:36.944Z,20.23
2023-08-03T02:52:11.817Z,20.25
2023-08-03T02:54:52.164Z,20.27
2023-08-03T02:57:28.535Z,20.20
2023-08-03T03:00:01.572Z,20.21
2023-08-03T03:02:34.481Z,20.18
2023-08-03T03:05:08.228Z,20.19
2023-08-03T03:07:45.293Z,20.14
2023-08-03T03:10:17.921Z,20.18
2023-08-03T03:12:51.967Z,20.20
2023-08-03T03:15:32.667Z,20.17
2023-08-03T03:18:21.315Z,20.19
2023-08-03T03:20:54.114Z,20.20
2023-08-03T03:23:26.678Z,20.16
2023-08-03T03:25:59.282Z,20.15
2023-08-03T03:28:33.642Z,20.09
2023-08-03T03:31:06.470Z,20.19
2023-08-03T03:42:41.387Z,20.09
2023-08-03T03:45:15.989Z,20.09
2023-08-03T03:47:49.250Z,20.08
2023-08-03T03:50:23.025Z,19.97
2023-08-03T03:52:56.204Z,20.05
2023-08-03T03:55:28.899Z,20.02
2023-08-03T03:58:03.833Z,20.00
2023-08-03T04:00:41.790Z,19.99
2023-08-03T04:03:17.857Z,19.96
2023-08-03T04:05:50.585Z,20.00
2023-08-03T04:08:23.255Z,20.04
2023-08-03T04:10:55.908Z,19.95
2023-08-03T04:13:28.527Z,19.93
2023-08-03T04:16:02.449Z,19.91
2023-08-03T04:18:39.774Z,19.94
2023-08-03T04:21:12.699Z,19.93
2023-08-03T04:23:45.368Z,19.88
2023-08-03T04:26:18.310Z,19.93
2023-08-03T04:28:51.339Z,19.88
2023-08-03T04:31:28.320Z,19.89
2023-08-03T04:34:01.625Z,19.86
2023-08-03T04:36:35.111Z,19.88
2023-08-03T04:39:08.089Z,19.82
2023-08-03T04:41:40.784Z,19.85
2023-08-03T04:44:13.455Z,19.73
2023-08-03T04:46:47.543Z,19.71
2023-08-03T04:49:20.322Z,19.74
2023-08-03T04:51:58.675Z,19.78
2023-08-03T04:54:32.011Z,19.72
2023-08-03T04:57:05.419Z,19.81
2023-08-03T05:02:38.832Z,19.72
2023-08-03T05:05:11.875Z,19.66
2023-08-03T05:07:44.674Z,19.76
2023-08-03T05:10:17.589Z,19.76
2023-08-03T05:12:50.817Z,19.76
2023-08-03T05:15:23.512Z,19.76
2023-08-03T05:17:57.664Z,19.74
2023-08-03T05:20:30.424Z,19.71
2023-08-03T05:23:03.149Z,19.71
2023-08-03T05:25:35.679Z,19.77
2023-08-03T05:28:08.351Z,19.73
2023-08-03T05:30:41.173Z,19.69
2023-08-03T05:33:15.737Z,19.71
2023-08-03T05:35:51.275Z,19.66
2023-08-03T05:38:24.377Z,19.75
2023-08-03T05:40:57.085Z,19.65
2023-08-03T05:43:29.951Z,19.64
2023-08-03T05:46:03.335Z,19.74
2023-08-03T05:48:37.603Z,19.74
2023-08-03T05:51:11.658Z,19.72
2023-08-03T05:53:44.255Z,19.75
2023-08-03T05:56:17.235Z,19.72
2023-08-03T05:58:50.070Z,19.69
2023-08-03T06:01:23.412Z,19.70
2023-08-03T06:03:57.742Z,19.71
2023-08-03T06:06:30.481Z,19.69
2023-08-03T06:09:03.169Z,19.68
2023-08-03T06:11:36.015Z,19.80
2023-08-03T06:14:12.267Z,19.71
2023-08-03T06:16:45.514Z,19.79
2023-08-03T06:19:19.722Z,19.82
2023-08-03T06:21:52.515Z,19.80
2023-08-03T06:24:25.240Z,19.87
2023-08-03T06:26:59.411Z,19.89
2023-08-03T06:29:32.066Z,19.86
2023-08-03T06:32:04.958Z,19.92
2023-08-03T06:34:38.966Z,19.96
2023-08-03T06:37:11.854Z,19.95
2023-08-03T06:39:44.527Z,19.91
2023-08-03T06:42:17.241Z,19.92
2023-08-03T06:44:50.086Z,19.85
2023-08-03T06:47:23.026Z,19.90
2023-08-03T06:49:57.490Z,19.97
2023-08-03T06:52:30.140Z,19.98
2023-08-03T06:55:02.798Z,20.04
2023-08-03T06:57:35.519Z,20.03
2023-08-03T07:00:08.881Z,20.01
2023-08-03T07:02:41.679Z,20.04
2023-08-03T07:05:15.961Z,20.06
2023-08-03T07:07:48.658Z,20.07
2023-08-03T07:10:21.495Z,20.00
2023-08-03T07:12:54.719Z,20.04
2023-08-03T07:15:27.429Z,20.05
2023-08-03T07:18:00.308Z,20.06
2023-08-03T07:20:35.636Z,20.11
2023-08-03T07:23:08.646Z,20.13
2023-08-03T07:25:41.386Z,20.12
2023-08-03T07:28:14.267Z,20.20
2023-08-03T07:30:46.863Z,20.30
2023-08-03T07:33:19.643Z,20.24
2023-08-03T07:35:53.723Z,20.30
2023-08-03T07:38:26.334Z,20.38
2023-08-03T07:40:59.196Z,20.45
2023-08-03T07:43:31.892Z,20.48
2023-08-03T07:46:04.626Z,20.51
2023-08-03T07:48:37.181Z,20.57
2023-08-03T07:51:14.889Z,20.75
2023-08-03T07:53:47.498Z,20.68
2023-08-03T07:56:20.703Z,20.83
2023-08-03T07:58:53.599Z,20.85
2023-08-03T08:01:26.428Z,20.90
2023-08-03T08:03:59.308Z,20.91
2023-08-03T08:06:33.556Z,20.87
2023-08-03T08:09:07.422Z,20.83
2023-08-03T08:11:40.173Z,20.90
2023-08-03T08:14:12.935Z,20.83
2023-08-03T08:16:48.674Z,20.82
2023-08-03T08:19:26.032Z,20.82
2023-08-03T08:22:13.246Z,20.87
2023-08-03T08:24:48.013Z,20.87
2023-08-03T08:27:21.060Z,20.91
2023-08-03T08:29:53.845Z,20.91
2023-08-03T08:32:26.721Z,21.00
2023-08-03T08:34:59.701Z,21.02
2023-08-03T08:37:33.720Z,21.01
2023-08-03T08:40:08.084Z,21.09
2023-08-03T08:42:41.034Z,21.15
2023-08-03T08:45:13.746Z,21.19
2023-08-03T08:47:46.459Z,21.29
2023-08-03T09:00:45.448Z,21.47
2023-08-03T09:03:18.450Z,21.48
2023-08-03T09:08:48.906Z,21.70
2023-08-03T09:11:37.570Z,21.72
2023-08-03T09:14:14.204Z,21.82
2023-08-03T09:16:46.961Z,21.96
2023-08-03T09:19:39.563Z,21.87
2023-08-03T09:22:12.956Z,21.97
2023-08-03T09:24:48.064Z,22.07
2023-08-03T09:27:21.579Z,22.01
2023-08-03T09:29:59.919Z,21.99
2023-08-03T09:32:35.693Z,21.94
2023-08-03T09:35:17.855Z,21.88
2023-08-03T09:37:51.905Z,21.74
2023-08-03T09:40:26.478Z,21.61
2023-08-03T09:43:02.452Z,21.52
2023-08-03T09:52:04.545Z,21.31
2023-08-03T09:59:55.133Z,21.16
2023-08-03T10:05:04.357Z,21.09
2023-08-03T10:07:40.850Z,21.04
2023-08-03T10:10:15.845Z,20.99
2023-08-03T10:12:53.102Z,20.98
2023-08-03T10:15:26.935Z,20.94
2023-08-03T10:18:00.308Z,20.90
2023-08-03T10:20:33.057Z,20.92
2023-08-03T10:23:09.801Z,20.88
2023-08-03T10:25:52.380Z,20.83
2023-08-03T10:28:27.046Z,20.80
2023-08-03T10:31:03.656Z,20.81
2023-08-03T10:33:51.488Z,20.80
2023-08-03T10:36:40.377Z,20.79
2023-08-03T10:39:36.420Z,20.79
2023-08-03T10:47:54.996Z,20.86
2023-08-03T10:50:42.860Z,20.86
2023-08-03T10:53:15.653Z,20.87
2023-08-03T10:55:49.358Z,20.84
2023-08-03T10:58:22.219Z,20.82
2023-08-03T11:00:58.248Z,20.85
2023-08-03T11:03:38.632Z,20.84
2023-08-03T11:06:11.789Z,20.81
2023-08-03T11:08:45.754Z,20.88
2023-08-03T11:11:23.391Z,20.87
2023-08-03T11:13:56.416Z,20.89
2023-08-03T11:16:30.256Z,20.89
2023-08-03T11:19:06.082Z,20.92
2023-08-03T11:21:38.730Z,20.96
2023-08-03T11:24:11.997Z,20.99
2023-08-03T11:26:45.015Z,21.04
2023-08-03T11:29:17.884Z,21.07
2023-08-03T11:31:51.894Z,21.15
2023-08-03T11:34:26.225Z,21.24
2023-08-03T11:36:59.086Z,21.32
2023-08-03T11:39:31.948Z,21.38
2023-08-03T11:42:04.942Z,21.53
2023-08-03T11:44:45.872Z,21.71
2023-08-03T11:47:27.494Z,21.85
2023-08-03T11:50:03.643Z,21.85
2023-08-03T11:52:36.302Z,21.85
2023-08-03T11:55:09.232Z,21.83
2023-08-03T11:57:59.482Z,21.88
2023-08-03T12:00:32.972Z,21.82
2023-08-03T12:03:05.640Z,21.81
2023-08-03T12:08:23.883Z,21.93
2023-08-03T12:11:00.597Z,21.97
2023-08-03T12:13:38.885Z,21.94
2023-08-03T12:16:12.287Z,21.89
2023-08-03T12:18:44.962Z,21.92
2023-08-03T12:21:18.991Z,21.91
2023-08-03T12:23:52.316Z,22.04
2023-08-03T12:26:25.007Z,22.07
2023-08-03T12:29:08.068Z,22.07
2023-08-03T12:31:41.103Z,22.11
2023-08-03T12:34:13.894Z,22.17
2023-08-03T12:36:48.427Z,22.11
2023-08-03T12:39:21.494Z,22.06
2023-08-03T12:41:54.231Z,22.10
2023-08-03T12:44:27.656Z,22.12
2023-08-03T12:47:00.528Z,22.18
2023-08-03T12:49:37.361Z,22.24
2023-08-03T12:52:11.656Z,22.26
2023-08-03T12:54:44.213Z,22.31
2023-08-03T12:57:17.983Z,22.38
2023-08-03T12:59:50.705Z,22.45
2023-08-03T13:02:23.758Z,22.53
2023-08-03T13:04:56.610Z,22.56
2023-08-03T13:07:30.590Z,22.46
2023-08-03T13:10:03.120Z,22.44
2023-08-03T13:12:35.789Z,22.47
2023-08-03T13:15:08.855Z,22.45
2023-08-03T13:17:41.749Z,22.51
2023-08-03T13:20:14.680Z,22.52
2023-08-03T13:22:48.855Z,22.54
2023-08-03T13:25:21.586Z,22.57
2023-08-03T13:27:55.285Z,22.61
2023-08-03T13:30:27.946Z,22.62
2023-08-03T13:33:00.847Z,22.66
2023-08-03T13:35:33.670Z,22.76
2023-08-03T13:38:07.809Z,22.73
2023-08-03T13:40:40.522Z,22.81
2023-08-03T13:43:13.086Z,22.96
2023-08-03T13:45:46.308Z,23.13
2023-08-03T13:48:19.096Z,23.15
2023-08-03T13:50:51.828Z,23.25
2023-08-03T13:53:25.876Z,23.39
2023-08-03T13:55:59.275Z,23.51
2023-08-03T14:01:19.553Z,23.52
2023-08-03T14:03:53.499Z,23.56
2023-08-03T14:16:54.861Z,23.46
2023-08-03T14:19:28.416Z,23.54
2023-08-03T14:22:01.210Z,23.42
2023-08-03T14:24:35.419Z,23.53
2023-08-03T14:27:23.464Z,23.68
2023-08-03T14:29:56.502Z,23.69
2023-08-03T14:32:29.458Z,23.72
2023-08-03T14:37:37.654Z,23.90
2023-08-03T14:40:12.413Z,23.84
2023-08-03T14:42:55.241Z,23.87
2023-08-03T14:45:36.222Z,23.80
2023-08-03T14:48:10.384Z,23.67
2023-08-03T14:50:52.086Z,23.66
2023-08-03T14:53:25.001Z,23.58
2023-08-03T15:01:11.773Z,23.55
2023-08-03T15:03:44.660Z,23.63
2023-08-03T15:06:18.508Z,23.59
2023-08-03T15:08:52.766Z,23.58
2023-08-03T15:11:27.552Z,23.63
2023-08-03T15:14:00.201Z,23.67
2023-08-03T15:16:34.268Z,23.69
2023-08-03T15:21:45.243Z,23.63
2023-08-03T15:24:19.054Z,23.63
2023-08-03T15:26:56.555Z,23.61
2023-08-03T15:29:53.727Z,23.61
2023-08-03T15:35:02.532Z,23.59
2023-08-03T15:37:38.054Z,23.57
2023-08-03T15:40:12.550Z,23.55
2023-08-03T15:42:50.398Z,23.44
2023-08-03T15:45:24.894Z,23.47
2023-08-03T15:50:36.509Z,23.35
2023-08-03T15:58:28.768Z,23.22
2023-08-03T16:01:04.083Z,23.20
2023-08-03T16:03:37.606Z,23.20
2023-08-03T16:06:14.910Z,23.10
2023-08-03T16:08:47.600Z,23.23
2023-08-03T16:11:30.089Z,23.13
2023-08-03T16:14:09.077Z,23.21
2023-08-03T16:16:42.051Z,23.26
2023-08-03T16:19:15.248Z,23.39
2023-08-03T16:21:48.159Z,23.10
2023-08-03T16:24:20.811Z,23.06
2023-08-03T16:26:54.541Z,22.98
2023-08-03T16:29:29.107Z,23.00
2023-08-03T16:32:15.265Z,23.05
2023-08-03T16:37:24.166Z,23.04
2023-08-03T16:39:56.932Z,23.10
2023-08-03T16:42:29.711Z,23.16
2023-08-03T16:45:04.585Z,23.15
2023-08-03T16:47:37.360Z,23.13
2023-08-03T16:50:10.493Z,23.13
2023-08-03T16:52:43.127Z,23.16
2023-08-03T16:55:15.892Z,23.11
2023-08-03T16:57:48.759Z,23.17
2023-08-03T17:00:23.154Z,23.05
2023-08-03T17:02:55.871Z,23.05
2023-08-03T17:05:28.553Z,23.08
2023-08-03T17:08:01.388Z,23.00
2023-08-03T17:10:34.485Z,23.01
2023-08-03T17:13:07.238Z,23.06
2023-08-03T17:15:41.528Z,23.02
2023-08-03T17:18:14.441Z,22.98
2023-08-03T17:20:47.276Z,22.97
2023-08-03T17:23:19.943Z,22.99
2023-08-03T17:25:52.715Z,22.93
2023-08-03T17:28:26.801Z,22.95
2023-08-03T17:31:04.185Z,22.95
2023-08-03T17:33:40.189Z,22.94
2023-08-03T17:36:13.904Z,22.89
2023-08-03T17:38:46.691Z,22.80
2023-08-03T17:41:19.348Z,22.78
2023-08-03T17:43:53.410Z,22.73
2023-08-03T17:46:28.468Z,22.77
2023-08-03T17:49:02.742Z,22.69
2023-08-03T17:51:35.484Z,22.70
2023-08-03T17:54:08.198Z,22.67
2023-08-03T17:56:41.106Z,22.68
2023-08-03T17:59:13.836Z,22.56
2023-08-03T18:01:47.985Z,22.64
2023-08-03T18:04:22.715Z,22.57
2023-08-03T18:06:55.487Z,22.57
2023-08-03T18:09:29.731Z,22.50
2023-08-03T18:12:02.554Z,22.49
2023-08-03T18:14:35.200Z,22.47
2023-08-03T18:17:09.281Z,22.48
2023-08-03T18:19:41.985Z,22.42
2023-08-03T18:22:14.707Z,22.32
2023-08-03T18:24:48.973Z,22.33
2023-08-03T18:27:21.872Z,22.26
2023-08-03T18:29:54.663Z,22.21
2023-08-03T18:32:29.184Z,22.17
2023-08-03T18:35:02.070Z,22.05
2023-08-03T18:37:34.881Z,22.00
2023-08-03T18:40:08.349Z,22.01
2023-08-03T18:42:41.092Z,21.98
2023-08-03T18:45:13.809Z,21.95
2023-08-03T18:47:47.963Z,21.96
2023-08-03T18:50:20.904Z,21.87
2023-08-03T18:52:53.631Z,21.81
2023-08-03T18:55:26.405Z,21.78
2023-08-03T18:57:59.211Z,21.87
2023-08-03T19:00:31.870Z,21.75
2023-08-03T19:03:06.138Z,21.79
2023-08-03T19:05:39.462Z,21.76
2023-08-03T19:08:12.104Z,21.70
2023-08-03T19:10:45.067Z,21.62
2023-08-03T19:13:20.568Z,21.51
2023-08-03T19:15:53.292Z,21.41
2023-08-03T19:18:27.857Z,21.45
2023-08-03T19:21:01.705Z,21.44
2023-08-03T19:23:34.544Z,21.34
2023-08-03T19:26:08.880Z,21.39
2023-08-03T19:28:41.765Z,21.29
2023-08-03T19:31:15.313Z,21.37
2023-08-03T19:33:49.471Z,21.20
2023-08-03T19:36:22.072Z,21.14
2023-08-03T19:38:55.688Z,21.07
2023-08-03T19:41:28.397Z,21.07
2023-08-03T19:44:01.161Z,20.99
2023-08-03T19:46:33.835Z,20.88
2023-08-03T19:50:26.696Z,20.85
2023-08-03T19:52:25.854Z,20.81
2023-08-03T20:10:37.107Z,20.67
2023-08-03T20:13:11.529Z,20.62
2023-08-03T20:18:21.894Z,20.59
2023-08-03T20:20:57.294Z,20.58
2023-08-03T20:23:30.886Z,20.51
2023-08-03T20:26:04.311Z,20.54
2023-08-03T20:28:40.209Z,20.49
2023-08-03T20:31:13.589Z,20.51
2023-08-03T20:33:46.427Z,20.50
2023-08-03T20:36:20.410Z,20.46
2023-08-03T20:39:14.493Z,20.43
2023-08-03T20:44:22.878Z,20.47
2023-08-03T20:46:56.235Z,20.45
2023-08-03T20:49:29.102Z,20.43
2023-08-03T20:52:03.222Z,20.44
2023-08-03T20:54:39.028Z,20.39
2023-08-03T20:57:11.929Z,20.35
2023-08-03T20:59:44.545Z,20.35
2023-08-03T21:02:17.937Z,20.29
2023-08-03T21:04:50.795Z,20.34
2023-08-03T21:07:25.266Z,20.28
2023-08-03T21:12:33.722Z,20.28
2023-08-03T21:15:09.132Z,20.30
2023-08-03T21:17:41.899Z,20.26
2023-08-03T21:20:14.757Z,20.37
2023-08-03T21:22:49.468Z,20.28
2023-08-03T21:25:22.272Z,20.20
2023-08-03T21:27:54.963Z,20.25
2023-08-03T21:30:28.010Z,20.22
2023-08-03T21:33:00.770Z,20.27
2023-08-03T21:35:33.429Z,20.24
2023-08-03T21:38:08.802Z,20.23
2023-08-03T21:40:41.772Z,20.27
2023-08-03T21:43:14.698Z,20.26
2023-08-03T21:45:47.872Z,20.27
2023-08-03T21:48:20.587Z,20.25
2023-08-03T21:50:53.492Z,20.18
2023-08-03T21:53:27.704Z,20.14
2023-08-03T21:56:00.421Z,20.12
2023-08-03T21:58:53.179Z,20.12
2023-08-03T22:01:28.111Z,20.11
2023-08-03T22:04:00.930Z,20.08
2023-08-03T22:06:34.096Z,20.12
2023-08-03T22:09:08.142Z,20.07
2023-08-03T22:11:40.830Z,20.04
2023-08-03T22:14:13.438Z,20.02
2023-08-03T22:16:46.255Z,20.00
2023-08-03T22:19:19.053Z,20.05
2023-08-03T22:21:52.910Z,20.05
2023-08-03T22:24:26.924Z,20.08
2023-08-03T22:26:59.607Z,20.11
2023-08-03T22:29:34.306Z,20.05
2023-08-03T22:32:07.488Z,20.01
2023-08-03T22:34:40.186Z,20.05
2023-08-03T22:37:12.904Z,19.98
2023-08-03T22:39:47.224Z,19.94
2023-08-03T22:42:19.990Z,19.93
2023-08-03T22:44:52.615Z,19.94
2023-08-03T22:47:25.339Z,19.92
2023-08-03T22:49:58.186Z,19.94
2023-08-03T22:52:31.073Z,19.88
2023-08-03T22:55:05.657Z,19.89
2023-08-03T22:57:41.427Z,19.87
2023-08-03T23:00:14.516Z,19.90
2023-08-03T23:17:46.004Z,19.81
2023-08-03T23:20:18.882Z,19.84
2023-08-03T23:22:51.845Z,19.80
2023-08-03T23:25:24.429Z,19.77
2023-08-03T23:27:59.344Z,19.76
2023-08-03T23:30:31.971Z,19.78
2023-08-03T23:33:05.968Z,19.77
2023-08-03T23:35:38.552Z,19.76
2023-08-03T23:38:11.327Z,19.74
2023-08-03T23:40:44.024Z,19.76
2023-08-03T23:43:16.822Z,19.71
2023-08-03T23:45:49.427Z,19.75
2023-08-03T23:48:23.567Z,19.77
2023-08-03T23:50:58.424Z,19.68
